Albany, Vermont
Current Conditions -  °F | °C
As of 2:55 AM on Thursday 29 Jan 2015 (Local Time) from KEFK Reporting Station
Clear Clear  
Wind Chill: -26°   Ceiling: Unl
Heat Index: -10°   Visibility: 10mi
Dew Point: -15°   Wind: 7mph
Humidity: 81%   Direction: 220°SW
Pressure: 30.28"   Gusts: NA
Location:  44.73°N, 72.38°W
Report Text: KEFK 290755Z AUTO 22006KT 10SM CLR M24/M26 A3028 RMK AO2 T12361260
Loading
Personal Weather Stations






























Interactive Weather Map New forecast layout! Learn more

10-Day Weather Forecast

Advertisements
Track Severe Weather on mobile